Time;durP1;ratioP1;P1;durP2;ratioP2;P2;SDS_P1;SDS_P2;PMS_P1;PMS_P2;Temp;Humidity;BMP_temperature;BMP_pressure;BME280_temperature;BME280_humidity;BME280_pressure;Samples;Min_cycle;Max_cycle;Signal;HPM_P1;HPM_P2
2020/12/09 00:04:41;;;;;;;47.10;23.15;;;;;;;;;;4990564;23;20047;-90
2020/12/09 00:07:07;;;;;;;45.70;23.13;;;;;;;;;;4977019;28;20054;-89
2020/12/09 00:09:33;;;;;;;47.05;22.48;;;;;;;;;;4977099;28;20048;-89
2020/12/09 00:11:59;;;;;;;47.65;23.92;;;;;;;;;;4975241;28;20047;-89
2020/12/09 00:14:27;;;;;;;50.55;24.55;;;;;;;;;;4978545;28;20046;-89
2020/12/09 00:16:54;;;;;;;48.50;22.60;;;;;;;;;;4978813;28;20054;-90
2020/12/09 00:19:20;;;;;;;46.30;22.98;;;;;;;;;;4981304;28;20081;-90
2020/12/09 00:21:46;;;;;;;56.03;25.60;;;;;;;;;;4982334;28;20060;-89
2020/12/09 00:24:12;;;;;;;48.25;23.77;;;;;;;;;;4983069;28;20061;-89
2020/12/09 00:26:38;;;;;;;44.47;22.58;;;;;;;;;;4963357;28;20055;-89
2020/12/09 00:29:06;;;;;;;51.28;24.50;;;;;;;;;;4976291;28;20054;-89
2020/12/09 00:31:32;;;;;;;51.22;24.95;;;;;;;;;;4984659;28;20146;-89
2020/12/09 00:34:00;;;;;;;45.00;23.58;;;;;;;;;;5004370;28;20046;-88
2020/12/09 00:36:26;;;;;;;49.58;24.85;;;;;;;;;;5001475;28;20054;-90
2020/12/09 00:38:53;;;;;;;53.85;25.58;;;;;;;;;;4965803;28;20113;-89
2020/12/09 00:41:22;;;;;;;51.75;23.83;;;;;;;;;;4981896;28;20081;-89
2020/12/09 00:43:48;;;;;;;51.63;24.50;;;;;;;;;;4999918;28;20057;-89
2020/12/09 00:46:15;;;;;;;50.58;24.23;;;;;;;;;;4999490;28;20057;-89
2020/12/09 00:48:41;;;;;;;51.75;25.17;;;;;;;;;;4982583;28;20058;-88
2020/12/09 00:51:13;;;;;;;50.47;23.23;;;;;;;;;;5000669;28;20054;-89
2020/12/09 00:53:39;;;;;;;55.25;25.85;;;;;;;;;;4982383;28;20054;-89
2020/12/09 00:56:06;;;;;;;54.03;25.48;;;;;;;;;;4981753;28;20051;-89
2020/12/09 00:58:32;;;;;;;50.88;24.75;;;;;;;;;;4998660;28;20050;-89
2020/12/09 01:00:58;;;;;;;59.97;26.60;;;;;;;;;;4997838;28;20470;-89
2020/12/09 01:03:24;;;;;;;57.22;26.67;;;;;;;;;;4981061;28;20424;-89
2020/12/09 01:05:51;;;;;;;50.60;23.63;;;;;;;;;;4962733;28;20051;-89
2020/12/09 01:08:18;;;;;;;60.45;26.60;;;;;;;;;;4944574;28;20051;-89
2020/12/09 01:10:44;;;;;;;52.65;24.88;;;;;;;;;;4971726;28;20542;-89
2020/12/09 01:13:10;;;;;;;56.13;24.58;;;;;;;;;;4960384;28;20082;-90
2020/12/09 01:15:36;;;;;;;55.92;24.42;;;;;;;;;;4959805;28;20066;-89
2020/12/09 01:18:02;;;;;;;50.25;23.13;;;;;;;;;;4960375;28;20494;-89
2020/12/09 01:20:28;;;;;;;49.53;25.00;;;;;;;;;;4977842;28;20054;-89
2020/12/09 01:22:54;;;;;;;42.03;21.73;;;;;;;;;;4977604;28;20086;-89
2020/12/09 01:25:21;;;;;;;48.95;23.83;;;;;;;;;;4960345;28;20057;-89
2020/12/09 01:27:47;;;;;;;45.75;23.55;;;;;;;;;;4977697;28;20055;-89
2020/12/09 01:30:13;;;;;;;49.85;22.33;;;;;;;;;;4944840;28;20050;-89
2020/12/09 01:32:39;;;;;;;42.97;22.90;;;;;;;;;;4978234;28;20054;-89
2020/12/09 01:35:05;;;;;;;51.45;24.70;;;;;;;;;;4961291;28;20426;-89
2020/12/09 01:37:31;;;;;;;52.05;23.35;;;;;;;;;;4978204;28;20046;-89
2020/12/09 01:39:57;;;;;;;49.25;22.85;;;;;;;;;;4978719;28;20047;-89
2020/12/09 01:42:24;;;;;;;52.40;24.83;;;;;;;;;;4960525;28;20077;-89
2020/12/09 01:44:50;;;;;;;46.83;24.00;;;;;;;;;;4961021;28;20050;-89
2020/12/09 01:47:16;;;;;;;48.03;23.23;;;;;;;;;;4973625;28;20057;-90
2020/12/09 01:49:42;;;;;;;46.85;22.90;;;;;;;;;;4998036;28;20042;-88
2020/12/09 01:52:08;;;;;;;49.90;24.38;;;;;;;;;;4964764;28;20104;-89
2020/12/09 01:54:35;;;;;;;49.45;23.35;;;;;;;;;;4964509;28;20054;-89
2020/12/09 01:57:11;;;;;;;49.13;24.58;;;;;;;;;;4964747;28;20084;-89
2020/12/09 01:59:40;;;;;;;47.60;23.42;;;;;;;;;;4976660;28;20055;-89
2020/12/09 02:02:07;;;;;;;46.08;22.65;;;;;;;;;;4950892;28;20078;-89
2020/12/09 02:04:34;;;;;;;50.00;23.85;;;;;;;;;;4997052;28;20053;-89
2020/12/09 02:07:00;;;;;;;45.53;23.02;;;;;;;;;;4978857;28;20046;-89
2020/12/09 02:09:26;;;;;;;50.33;23.85;;;;;;;;;;4996324;28;20050;-89
2020/12/09 02:11:53;;;;;;;47.05;22.75;;;;;;;;;;4964058;28;20070;-89
2020/12/09 02:14:19;;;;;;;44.10;22.80;;;;;;;;;;4977409;28;20595;-89
2020/12/09 02:16:49;;;;;;;44.17;21.48;;;;;;;;;;4986231;28;20422;-89
2020/12/09 02:19:15;;;;;;;45.28;22.85;;;;;;;;;;4986070;28;20080;-89
2020/12/09 02:21:42;;;;;;;44.70;22.30;;;;;;;;;;4959125;28;20113;-89
2020/12/09 02:24:08;;;;;;;48.60;21.90;;;;;;;;;;4968357;28;20078;-89
2020/12/09 02:26:34;;;;;;;45.65;23.00;;;;;;;;;;4959364;28;20494;-89
2020/12/09 02:29:00;;;;;;;43.10;22.55;;;;;;;;;;4977503;28;20054;-88
2020/12/09 02:31:26;;;;;;;48.03;23.30;;;;;;;;;;4960269;28;20414;-89
2020/12/09 02:33:54;;;;;;;50.38;22.80;;;;;;;;;;4960171;28;20055;-89
2020/12/09 02:36:20;;;;;;;50.28;24.42;;;;;;;;;;4971526;28;20050;-89
2020/12/09 02:38:47;;;;;;;46.83;21.73;;;;;;;;;;4996641;28;20387;-89
2020/12/09 02:41:13;;;;;;;48.05;23.98;;;;;;;;;;4979960;28;20402;-89
2020/12/09 02:43:39;;;;;;;51.15;23.38;;;;;;;;;;4979544;28;20054;-89
2020/12/09 02:46:05;;;;;;;48.97;23.25;;;;;;;;;;4991877;28;20105;-88
2020/12/09 02:48:31;;;;;;;49.53;23.75;;;;;;;;;;4959325;28;20058;-88
2020/12/09 02:50:57;;;;;;;54.90;24.67;;;;;;;;;;4987051;28;20043;-89
2020/12/09 02:53:23;;;;;;;49.28;24.42;;;;;;;;;;4968786;28;20546;-89
2020/12/09 02:55:50;;;;;;;55.65;25.27;;;;;;;;;;4996535;28;20081;-89
2020/12/09 02:58:16;;;;;;;45.03;22.73;;;;;;;;;;4995686;28;20061;-89
2020/12/09 03:00:42;;;;;;;57.67;25.60;;;;;;;;;;4978727;28;20057;-90
2020/12/09 03:03:08;;;;;;;52.50;23.10;;;;;;;;;;4975399;28;20051;-89
2020/12/09 03:05:34;;;;;;;52.35;24.98;;;;;;;;;;4978626;28;20085;-89
2020/12/09 03:08:00;;;;;;;51.83;24.40;;;;;;;;;;4995664;28;20410;-88
2020/12/09 03:10:26;;;;;;;58.38;24.40;;;;;;;;;;4979549;28;20051;-89
2020/12/09 03:12:53;;;;;;;52.20;24.70;;;;;;;;;;4996703;28;20182;-88
2020/12/09 03:15:19;;;;;;;56.83;26.70;;;;;;;;;;4978941;28;20472;-88
2020/12/09 03:17:45;;;;;;;48.28;22.95;;;;;;;;;;4982720;28;20082;-89
2020/12/09 03:20:11;;;;;;;50.30;24.60;;;;;;;;;;4977771;28;20046;-89
2020/12/09 03:22:37;;;;;;;48.53;23.63;;;;;;;;;;4995808;28;20102;-89
2020/12/09 03:25:03;;;;;;;58.65;25.95;;;;;;;;;;4995150;28;20050;-88
2020/12/09 03:27:29;;;;;;;51.22;24.45;;;;;;;;;;4968673;28;20054;-89
2020/12/09 03:29:56;;;;;;;54.25;25.27;;;;;;;;;;4977631;28;20062;-88
2020/12/09 03:32:22;;;;;;;50.85;25.10;;;;;;;;;;4969955;28;20051;-88
2020/12/09 03:34:48;;;;;;;52.85;26.33;;;;;;;;;;4984027;28;20082;-88
2020/12/09 03:37:14;;;;;;;50.60;25.65;;;;;;;;;;4997717;28;20059;-89
2020/12/09 03:39:40;;;;;;;50.60;24.95;;;;;;;;;;4980325;28;20061;-89
2020/12/09 03:42:06;;;;;;;50.67;25.20;;;;;;;;;;4998697;28;20050;-88
2020/12/09 03:44:32;;;;;;;56.45;26.00;;;;;;;;;;4991630;28;20055;-88
2020/12/09 03:46:59;;;;;;;49.90;24.10;;;;;;;;;;4964960;28;20043;-89
2020/12/09 03:49:25;;;;;;;56.85;26.80;;;;;;;;;;4980686;28;20516;-90
2020/12/09 03:51:51;;;;;;;53.45;24.83;;;;;;;;;;4981304;28;20061;-88
2020/12/09 03:54:17;;;;;;;50.08;26.65;;;;;;;;;;4980863;28;20069;-89
2020/12/09 03:56:44;;;;;;;55.95;23.92;;;;;;;;;;4965231;28;20112;-88
2020/12/09 03:59:10;;;;;;;59.72;27.08;;;;;;;;;;4981434;28;20054;-89
2020/12/09 04:01:36;;;;;;;56.22;26.27;;;;;;;;;;4980173;28;20257;-89
2020/12/09 04:04:03;;;;;;;56.58;26.85;;;;;;;;;;4991274;28;20050;-89
2020/12/09 04:06:29;;;;;;;54.67;26.50;;;;;;;;;;4999459;28;20050;-89
2020/12/09 04:08:55;;;;;;;56.33;28.05;;;;;;;;;;4966765;28;20057;-88
2020/12/09 04:11:21;;;;;;;50.67;24.75;;;;;;;;;;4999368;28;20406;-89
2020/12/09 04:13:47;;;;;;;59.00;26.15;;;;;;;;;;4998590;28;20058;-89
2020/12/09 04:16:13;;;;;;;52.08;26.90;;;;;;;;;;4972852;28;20051;-89
2020/12/09 04:18:39;;;;;;;61.00;27.33;;;;;;;;;;4998285;28;20410;-89
2020/12/09 04:21:05;;;;;;;60.97;27.45;;;;;;;;;;4996710;28;20086;-89
2020/12/09 04:23:33;;;;;;;55.05;27.05;;;;;;;;;;4961734;28;20047;-89
2020/12/09 04:25:59;;;;;;;56.38;27.58;;;;;;;;;;4962297;28;20046;-89
2020/12/09 04:28:26;;;;;;;57.10;27.67;;;;;;;;;;4978927;28;20101;-88
2020/12/09 04:30:52;;;;;;;60.08;27.65;;;;;;;;;;4962332;28;20050;-88
2020/12/09 04:33:18;;;;;;;61.60;27.02;;;;;;;;;;4960924;28;20047;-88
2020/12/09 04:35:44;;;;;;;60.30;29.27;;;;;;;;;;4961946;28;20043;-88
2020/12/09 04:38:11;;;;;;;58.75;28.27;;;;;;;;;;4943330;29;20058;-88
2020/12/09 04:40:37;;;;;;;65.80;30.63;;;;;;;;;;4974696;28;20054;-88
2020/12/09 04:43:04;;;;;;;50.70;24.88;;;;;;;;;;4941317;29;20098;-89
2020/12/09 04:45:31;;;;;;;59.05;27.95;;;;;;;;;;4939872;28;20479;-89
2020/12/09 04:48:05;;;;;;;60.80;27.63;;;;;;;;;;4978060;28;20062;-88
2020/12/09 04:50:35;;;;;;;54.78;27.13;;;;;;;;;;4977695;28;20130;-88
2020/12/09 04:53:06;;;;;;;58.80;29.40;;;;;;;;;;4977485;28;20384;-87
2020/12/09 04:55:33;;;;;;;57.55;27.73;;;;;;;;;;4958553;29;20066;-87
2020/12/09 04:58:13;;;;;;;59.70;28.42;;;;;;;;;;4956154;28;20051;-88
2020/12/09 05:00:40;;;;;;;60.15;27.75;;;;;;;;;;4940654;29;20052;-88
2020/12/09 05:03:14;;;;;;;55.53;26.60;;;;;;;;;;4950268;28;20130;-88
2020/12/09 05:05:40;;;;;;;59.17;27.33;;;;;;;;;;4976858;28;20062;-87
2020/12/09 05:08:06;;;;;;;54.50;27.95;;;;;;;;;;4976779;28;20053;-87
2020/12/09 05:10:36;;;;;;;56.15;27.35;;;;;;;;;;4974657;28;20078;-88
2020/12/09 05:13:04;;;;;;;61.75;28.42;;;;;;;;;;4959828;28;20082;-88
2020/12/09 05:15:31;;;;;;;55.88;27.90;;;;;;;;;;4969896;28;20051;-89
2020/12/09 05:18:05;;;;;;;60.60;28.13;;;;;;;;;;4963439;28;20057;-90
2020/12/09 05:20:34;;;;;;;58.78;27.23;;;;;;;;;;4959667;29;20047;-88
2020/12/09 05:23:00;;;;;;;57.17;28.60;;;;;;;;;;4979813;28;20084;-88
2020/12/09 05:25:27;;;;;;;56.10;27.20;;;;;;;;;;4963226;28;20065;-87
2020/12/09 05:27:54;;;;;;;55.55;26.20;;;;;;;;;;4994237;28;20050;-88
2020/12/09 05:30:46;;;;;;;59.90;29.17;;;;;;;;;;4977597;28;20051;-87
2020/12/09 05:33:14;;;;;;;56.60;26.92;;;;;;;;;;4938270;29;20419;-89
2020/12/09 05:35:43;;;;;;;60.83;27.90;;;;;;;;;;4963055;28;20402;-91
2020/12/09 05:38:12;;;;;;;59.95;28.05;;;;;;;;;;4961220;28;20133;-89
2020/12/09 05:40:43;;;;;;;51.88;25.70;;;;;;;;;;4977189;28;20131;-90
2020/12/09 05:43:11;;;;;;;60.15;28.75;;;;;;;;;;4977568;28;20057;-89
2020/12/09 05:45:37;;;;;;;52.72;26.35;;;;;;;;;;4978483;28;20046;-89
2020/12/09 05:48:18;;;;;;;58.78;27.02;;;;;;;;;;4956318;29;20058;-90
2020/12/09 05:50:45;;;;;;;61.53;29.55;;;;;;;;;;4939961;28;20051;-89
2020/12/09 05:53:16;;;;;;;57.25;28.02;;;;;;;;;;4977350;28;20487;-90
2020/12/09 05:55:43;;;;;;;60.88;28.52;;;;;;;;;;4976459;28;20046;-91
2020/12/09 05:58:34;;;;;;;57.33;26.83;;;;;;;;;;4984706;28;20082;-88
2020/12/09 06:01:11;;;;;;;70.18;35.33;;;;;;;;;;4959198;28;20054;-88
2020/12/09 06:03:38;;;;;;;60.42;31.17;;;;;;;;;;4947885;28;20058;-88
2020/12/09 06:06:18;;;;;;;60.88;31.10;;;;;;;;;;4981723;28;20061;-89
2020/12/09 06:08:49;;;;;;;60.47;32.75;;;;;;;;;;4978226;28;20091;-89
2020/12/09 06:11:17;;;;;;;62.00;29.85;;;;;;;;;;4982804;28;20050;-88
2020/12/09 06:13:44;;;;;;;60.17;29.80;;;;;;;;;;4982199;28;20138;-88
2020/12/09 06:16:12;;;;;;;47.17;24.08;;;;;;;;;;4991797;28;20042;-88
2020/12/09 06:18:39;;;;;;;52.30;26.60;;;;;;;;;;4992617;28;20058;-89
2020/12/09 06:21:05;;;;;;;51.80;25.95;;;;;;;;;;4972306;28;20057;-89
2020/12/09 06:23:32;;;;;;;51.65;25.98;;;;;;;;;;4974831;28;20058;-88
2020/12/09 06:26:00;;;;;;;54.63;27.20;;;;;;;;;;4974232;28;20137;-88
2020/12/09 06:28:27;;;;;;;57.67;27.08;;;;;;;;;;4974107;28;20061;-88
2020/12/09 06:30:56;;;;;;;55.22;27.88;;;;;;;;;;4957751;28;20093;-88
2020/12/09 06:33:36;;;;;;;56.55;27.27;;;;;;;;;;4970869;28;20050;-87
2020/12/09 06:36:27;;;;;;;53.88;26.60;;;;;;;;;;4959190;28;20047;-87
2020/12/09 06:39:13;;;;;;;56.47;28.27;;;;;;;;;;4961991;28;20043;-87
2020/12/09 06:41:49;;;;;;;55.80;26.80;;;;;;;;;;4975261;28;20051;-89
2020/12/09 06:44:16;;;;;;;52.75;28.00;;;;;;;;;;4975327;28;20054;-88
2020/12/09 06:46:48;;;;;;;60.72;27.95;;;;;;;;;;4975509;28;20062;-88
2020/12/09 06:49:38;;;;;;;54.17;28.05;;;;;;;;;;4975713;28;20050;-87
2020/12/09 06:52:26;;;;;;;56.75;27.83;;;;;;;;;;4972399;28;20047;-88
2020/12/09 06:54:52;;;;;;;51.63;26.08;;;;;;;;;;4949952;28;20050;-88
2020/12/09 06:57:21;;;;;;;52.28;26.58;;;;;;;;;;4957647;28;20398;-89
2020/12/09 06:59:48;;;;;;;50.10;26.83;;;;;;;;;;4974536;28;20085;-89
2020/12/09 07:02:26;;;;;;;57.20;26.77;;;;;;;;;;4957377;28;20055;-88
2020/12/09 07:05:13;;;;;;;53.60;27.52;;;;;;;;;;4956858;28;20510;-88
2020/12/09 07:07:41;;;;;;;54.53;27.33;;;;;;;;;;4961280;28;20475;-89
2020/12/09 07:10:19;;;;;;;55.55;26.30;;;;;;;;;;4978665;28;20062;-89
2020/12/09 07:12:45;;;;;;;60.05;28.35;;;;;;;;;;4977963;28;20042;-89
2020/12/09 07:15:11;;;;;;;62.90;28.92;;;;;;;;;;4960759;28;20058;-89
2020/12/09 07:17:38;;;;;;;62.00;29.60;;;;;;;;;;4961168;28;20050;-89
2020/12/09 07:20:05;;;;;;;57.05;25.92;;;;;;;;;;4977711;28;20054;-88
2020/12/09 07:22:32;;;;;;;54.22;27.92;;;;;;;;;;4961781;28;20161;-88
2020/12/09 07:24:58;;;;;;;55.17;27.52;;;;;;;;;;4978206;28;20054;-88
2020/12/09 07:27:26;;;;;;;55.88;28.23;;;;;;;;;;4978333;28;20082;-88
2020/12/09 07:29:55;;;;;;;62.72;28.67;;;;;;;;;;4977928;28;20051;-88
2020/12/09 07:32:22;;;;;;;51.33;25.70;;;;;;;;;;4945453;28;20054;-88
2020/12/09 07:34:51;;;;;;;51.20;26.05;;;;;;;;;;4960377;28;20057;-88
2020/12/09 07:37:17;;;;;;;52.75;24.35;;;;;;;;;;4978100;28;20057;-88
2020/12/09 07:39:44;;;;;;;54.05;27.23;;;;;;;;;;4977809;28;20051;-87
2020/12/09 07:42:11;;;;;;;52.45;25.27;;;;;;;;;;4960612;28;20658;-87
2020/12/09 07:44:41;;;;;;;55.80;26.77;;;;;;;;;;4960830;28;20058;-88
2020/12/09 07:47:07;;;;;;;47.55;26.60;;;;;;;;;;4945212;28;20128;-88
2020/12/09 07:49:34;;;;;;;56.30;26.95;;;;;;;;;;4978297;28;20077;-88
2020/12/09 07:52:02;;;;;;;55.40;25.40;;;;;;;;;;4945181;28;20074;-87
2020/12/09 07:54:28;;;;;;;52.55;27.40;;;;;;;;;;4977830;28;20046;-88
2020/12/09 07:56:54;;;;;;;55.63;27.60;;;;;;;;;;4961070;28;20051;-87
2020/12/09 07:59:21;;;;;;;49.75;25.08;;;;;;;;;;4979125;28;20053;-87
2020/12/09 08:01:47;;;;;;;53.53;27.20;;;;;;;;;;4978022;28;20141;-88
2020/12/09 08:04:13;;;;;;;55.65;28.58;;;;;;;;;;4960507;28;20061;-88
2020/12/09 08:06:39;;;;;;;51.60;26.45;;;;;;;;;;4960576;28;20054;-88
2020/12/09 08:09:13;;;;;;;52.65;25.92;;;;;;;;;;4959800;28;20138;-88
2020/12/09 08:11:43;;;;;;;50.95;25.98;;;;;;;;;;4959579;28;20062;-88
2020/12/09 08:14:10;;;;;;;54.25;26.05;;;;;;;;;;4977570;28;20431;-88
2020/12/09 08:16:36;;;;;;;49.03;25.83;;;;;;;;;;4977499;28;20046;-88
2020/12/09 08:19:07;;;;;;;56.25;26.25;;;;;;;;;;4960053;28;20053;-87
2020/12/09 08:21:34;;;;;;;59.30;27.20;;;;;;;;;;4977718;28;20106;-87
2020/12/09 08:24:10;;;;;;;48.58;24.80;;;;;;;;;;4977515;28;20047;-87
2020/12/09 08:26:37;;;;;;;52.63;25.20;;;;;;;;;;4960439;28;20058;-88
2020/12/09 08:29:04;;;;;;;51.80;23.35;;;;;;;;;;4976798;28;20495;-88
2020/12/09 08:31:31;;;;;;;53.80;26.67;;;;;;;;;;4977405;28;20671;-88
2020/12/09 08:33:57;;;;;;;50.58;25.85;;;;;;;;;;4977205;28;20061;-89
2020/12/09 08:36:24;;;;;;;56.38;24.60;;;;;;;;;;4959300;28;20394;-88
2020/12/09 08:38:52;;;;;;;47.72;24.70;;;;;;;;;;4976821;28;20130;-88
2020/12/09 08:41:24;;;;;;;53.42;24.85;;;;;;;;;;4959796;28;20055;-85
2020/12/09 08:43:59;;;;;;;51.20;25.65;;;;;;;;;;4959808;28;20410;-88
2020/12/09 08:46:27;;;;;;;54.42;25.92;;;;;;;;;;4977053;28;20450;-88
2020/12/09 08:48:54;;;;;;;58.00;26.20;;;;;;;;;;4977485;28;20372;-88
2020/12/09 08:51:24;;;;;;;50.63;24.67;;;;;;;;;;4959093;28;20053;-89
2020/12/09 08:53:50;;;;;;;49.63;25.55;;;;;;;;;;4976194;28;20061;-88
2020/12/09 08:56:17;;;;;;;54.05;25.80;;;;;;;;;;4976572;28;20057;-88
2020/12/09 08:58:43;;;;;;;52.22;24.83;;;;;;;;;;4958723;28;20487;-88
2020/12/09 09:01:11;;;;;;;58.78;27.15;;;;;;;;;;4958573;28;20051;-89
2020/12/09 09:03:40;;;;;;;56.22;25.58;;;;;;;;;;4975679;28;20055;-86
2020/12/09 09:06:07;;;;;;;57.83;26.02;;;;;;;;;;4943555;28;20427;-87
2020/12/09 09:08:33;;;;;;;61.55;25.55;;;;;;;;;;4958515;28;20047;-87
2020/12/09 09:11:00;;;;;;;56.33;25.00;;;;;;;;;;4975972;28;20050;-89
2020/12/09 09:13:31;;;;;;;58.10;26.77;;;;;;;;;;4980185;28;20072;-87
2020/12/09 09:15:58;;;;;;;56.58;26.63;;;;;;;;;;4959176;28;20114;-85
2020/12/09 09:18:25;;;;;;;54.85;24.90;;;;;;;;;;4958557;28;20502;-88
2020/12/09 09:20:53;;;;;;;57.63;25.60;;;;;;;;;;4926818;28;20541;-88
2020/12/09 09:23:19;;;;;;;44.33;21.55;;;;;;;;;;4959281;28;20604;-89
2020/12/09 09:25:45;;;;;;;53.97;26.35;;;;;;;;;;4958395;28;20061;-90
2020/12/09 09:28:12;;;;;;;48.83;23.50;;;;;;;;;;4975917;28;20051;-89
2020/12/09 09:30:38;;;;;;;48.22;24.02;;;;;;;;;;4958715;28;20053;-89
2020/12/09 09:33:04;;;;;;;55.45;25.63;;;;;;;;;;4975519;28;20063;-86
2020/12/09 09:35:31;;;;;;;54.22;26.08;;;;;;;;;;4943198;28;20047;-89
2020/12/09 09:37:57;;;;;;;61.45;27.33;;;;;;;;;;4959643;28;20122;-88
2020/12/09 09:40:24;;;;;;;55.78;25.73;;;;;;;;;;4961025;28;20055;-87
2020/12/09 09:42:56;;;;;;;48.05;23.92;;;;;;;;;;4988274;28;20061;-89
2020/12/09 09:45:24;;;;;;;47.30;24.45;;;;;;;;;;4982260;28;20046;-88
2020/12/09 09:47:51;;;;;;;63.03;27.50;;;;;;;;;;4997793;28;20062;-86
2020/12/09 09:50:17;;;;;;;84.68;33.75;;;;;;;;;;4962676;28;20250;-85
2020/12/09 09:52:44;;;;;;;63.03;30.33;;;;;;;;;;4978132;28;20490;-86
2020/12/09 09:55:11;;;;;;;58.42;27.80;;;;;;;;;;4986830;28;20043;-87
2020/12/09 09:57:37;;;;;;;54.22;26.15;;;;;;;;;;4977913;28;20056;-88
2020/12/09 10:00:04;;;;;;;51.17;24.30;;;;;;;;;;4976995;28;20054;-87
2020/12/09 10:02:31;;;;;;;46.47;22.38;;;;;;;;;;4994488;28;20046;-88
2020/12/09 10:04:57;;;;;;;43.55;23.05;;;;;;;;;;4993221;28;20053;-88
2020/12/09 10:07:24;;;;;;;43.55;22.88;;;;;;;;;;4976812;28;20524;-88
2020/12/09 10:09:51;;;;;;;45.60;23.55;;;;;;;;;;4993473;28;20042;-88
2020/12/09 10:12:17;;;;;;;41.50;23.10;;;;;;;;;;4976275;28;20054;-88
2020/12/09 10:14:43;;;;;;;40.35;21.42;;;;;;;;;;4976022;28;20061;-88
2020/12/09 10:17:09;;;;;;;42.38;22.48;;;;;;;;;;4960300;28;20053;-89
2020/12/09 10:19:35;;;;;;;45.15;21.75;;;;;;;;;;4993664;28;20046;-88
2020/12/09 10:22:02;;;;;;;45.58;23.58;;;;;;;;;;4976510;28;20501;-89
2020/12/09 10:24:28;;;;;;;38.95;21.58;;;;;;;;;;4993276;28;20065;-88
2020/12/09 10:26:55;;;;;;;40.40;21.02;;;;;;;;;;4976412;28;20050;-88
2020/12/09 10:29:21;;;;;;;49.22;24.20;;;;;;;;;;4976409;28;20490;-88
2020/12/09 10:31:49;;;;;;;49.15;23.33;;;;;;;;;;4976566;28;20054;-88
2020/12/09 10:34:17;;;;;;;40.92;21.70;;;;;;;;;;4993870;28;20046;-89
2020/12/09 10:36:48;;;;;;;49.35;24.38;;;;;;;;;;4993586;28;20046;-88
2020/12/09 10:39:14;;;;;;;44.78;22.70;;;;;;;;;;4993577;28;20046;-88
2020/12/09 10:41:41;;;;;;;50.15;25.02;;;;;;;;;;4992656;28;20513;-88
2020/12/09 10:44:09;;;;;;;52.97;26.52;;;;;;;;;;4993142;28;20478;-88
2020/12/09 10:46:36;;;;;;;50.10;24.35;;;;;;;;;;4976285;28;20114;-88
2020/12/09 10:49:04;;;;;;;43.03;22.65;;;;;;;;;;4959876;28;20478;-88
2020/12/09 10:51:31;;;;;;;43.30;22.25;;;;;;;;;;4976093;28;20055;-88
2020/12/09 10:53:57;;;;;;;44.30;23.17;;;;;;;;;;4992884;28;20050;-88
2020/12/09 10:56:28;;;;;;;47.05;22.77;;;;;;;;;;4975829;28;20054;-88
2020/12/09 10:58:54;;;;;;;39.30;20.73;;;;;;;;;;4975967;28;20054;-88
2020/12/09 11:01:22;;;;;;;39.17;21.60;;;;;;;;;;4993203;28;20061;-88
2020/12/09 11:03:48;;;;;;;38.75;20.90;;;;;;;;;;4975414;28;20050;-88
2020/12/09 11:06:14;;;;;;;34.97;20.20;;;;;;;;;;4992606;28;20065;-88
2020/12/09 11:08:40;;;;;;;34.63;19.23;;;;;;;;;;4992464;28;20510;-88
2020/12/09 11:11:07;;;;;;;37.30;21.05;;;;;;;;;;4992883;28;20054;-88
2020/12/09 11:13:33;;;;;;;34.28;18.70;;;;;;;;;;4993068;28;20097;-88
2020/12/09 11:15:59;;;;;;;39.50;21.38;;;;;;;;;;4993126;28;20054;-88
2020/12/09 11:18:26;;;;;;;40.88;22.80;;;;;;;;;;4993056;28;20054;-88
2020/12/09 11:20:53;;;;;;;44.65;21.88;;;;;;;;;;4993470;28;20109;-87
2020/12/09 11:23:19;;;;;;;35.90;20.80;;;;;;;;;;4977022;28;20053;-88
2020/12/09 11:25:45;;;;;;;38.92;22.52;;;;;;;;;;4976924;28;20081;-87
2020/12/09 11:28:13;;;;;;;38.83;20.73;;;;;;;;;;4977023;28;20050;-88
2020/12/09 11:30:39;;;;;;;36.53;20.05;;;;;;;;;;4971948;28;20043;-87
2020/12/09 11:33:05;;;;;;;34.78;20.75;;;;;;;;;;4958867;28;20679;-87
2020/12/09 11:35:32;;;;;;;40.03;21.63;;;;;;;;;;4980366;28;20053;-88
2020/12/09 11:37:58;;;;;;;41.10;22.13;;;;;;;;;;4994003;28;20057;-89
2020/12/09 11:40:25;;;;;;;42.22;21.77;;;;;;;;;;4994015;28;20089;-89
2020/12/09 11:42:52;;;;;;;40.05;21.40;;;;;;;;;;4994569;28;20109;-88
2020/12/09 11:45:18;;;;;;;43.33;23.30;;;;;;;;;;4992995;28;20062;-90
2020/12/09 11:47:44;;;;;;;38.78;21.17;;;;;;;;;;4993582;28;20058;-88
2020/12/09 11:50:10;;;;;;;40.85;22.73;;;;;;;;;;4993434;28;20053;-89
2020/12/09 11:52:37;;;;;;;38.22;21.10;;;;;;;;;;4977236;28;20058;-90
2020/12/09 11:55:04;;;;;;;45.40;24.92;;;;;;;;;;4996626;28;20054;-90
2020/12/09 11:57:30;;;;;;;42.40;21.20;;;;;;;;;;4997311;28;20145;-90
2020/12/09 11:59:57;;;;;;;44.28;22.42;;;;;;;;;;4984828;28;20057;-89
2020/12/09 12:02:23;;;;;;;36.05;19.92;;;;;;;;;;4979599;28;20054;-89
2020/12/09 12:04:50;;;;;;;38.28;21.05;;;;;;;;;;4996842;28;20057;-89
2020/12/09 12:07:16;;;;;;;32.78;18.65;;;;;;;;;;4997531;28;20089;-89
2020/12/09 12:09:43;;;;;;;30.17;17.60;;;;;;;;;;4997567;28;20125;-89
2020/12/09 12:12:09;;;;;;;30.98;16.83;;;;;;;;;;4996677;28;20058;-89
2020/12/09 12:14:36;;;;;;;39.15;20.60;;;;;;;;;;4979995;28;20497;-89
2020/12/09 12:17:07;;;;;;;30.30;18.08;;;;;;;;;;4963617;28;20042;-90
2020/12/09 12:19:36;;;;;;;34.35;18.85;;;;;;;;;;5000061;28;20141;-89
2020/12/09 12:22:02;;;;;;;33.95;20.05;;;;;;;;;;5001346;28;20046;-89
2020/12/09 12:24:29;;;;;;;30.05;17.42;;;;;;;;;;4998262;28;20517;-90
2020/12/09 12:27:00;;;;;;;30.45;17.27;;;;;;;;;;4998826;28;20053;-90
2020/12/09 12:29:26;;;;;;;28.00;15.65;;;;;;;;;;4995109;28;20085;-89
2020/12/09 12:31:52;;;;;;;32.38;17.40;;;;;;;;;;4998369;28;20418;-88
2020/12/09 12:34:18;;;;;;;26.67;15.23;;;;;;;;;;4980328;28;20129;-89
2020/12/09 12:36:45;;;;;;;27.90;16.45;;;;;;;;;;4979516;28;20057;-89
2020/12/09 12:39:11;;;;;;;27.42;17.35;;;;;;;;;;4997014;28;20169;-89
2020/12/09 12:41:37;;;;;;;29.95;17.38;;;;;;;;;;4996622;28;20413;-87
2020/12/09 12:44:04;;;;;;;26.58;14.68;;;;;;;;;;4997980;28;20058;-86
2020/12/09 12:46:30;;;;;;;24.20;14.63;;;;;;;;;;4964436;28;20058;-90
2020/12/09 12:48:56;;;;;;;27.83;15.90;;;;;;;;;;4994833;28;20417;-90
2020/12/09 12:51:23;;;;;;;24.00;15.15;;;;;;;;;;4994962;28;20069;-89
2020/12/09 12:53:50;;;;;;;29.52;15.75;;;;;;;;;;4996261;28;20129;-89
2020/12/09 12:56:17;;;;;;;25.95;16.75;;;;;;;;;;4996694;28;20053;-89
2020/12/09 12:58:43;;;;;;;27.30;16.73;;;;;;;;;;4964764;28;20109;-90
2020/12/09 13:01:11;;;;;;;29.60;17.20;;;;;;;;;;4995396;28;20137;-89
2020/12/09 13:03:37;;;;;;;28.45;16.92;;;;;;;;;;4994340;28;20054;-90
2020/12/09 13:06:04;;;;;;;26.98;16.33;;;;;;;;;;4977462;28;20050;-90
2020/12/09 13:08:31;;;;;;;28.60;16.27;;;;;;;;;;4979000;28;20093;-89
2020/12/09 13:10:57;;;;;;;28.25;16.52;;;;;;;;;;4961741;28;20058;-90
2020/12/09 13:13:23;;;;;;;26.48;15.13;;;;;;;;;;4995612;28;20541;-89
2020/12/09 13:15:49;;;;;;;27.77;15.88;;;;;;;;;;4994350;28;20050;-89
2020/12/09 13:18:16;;;;;;;27.40;15.90;;;;;;;;;;4994971;28;20141;-90
2020/12/09 13:20:43;;;;;;;24.95;15.30;;;;;;;;;;4978009;28;20137;-90
2020/12/09 13:23:09;;;;;;;25.92;15.27;;;;;;;;;;4961287;28;20049;-88
2020/12/09 13:25:35;;;;;;;25.88;14.77;;;;;;;;;;4993591;28;20050;-89
2020/12/09 13:28:01;;;;;;;23.08;14.85;;;;;;;;;;4971134;28;20053;-89
2020/12/09 13:30:28;;;;;;;23.98;14.10;;;;;;;;;;4987980;28;20494;-89
2020/12/09 13:32:56;;;;;;;28.08;15.77;;;;;;;;;;4994856;28;20398;-89
2020/12/09 13:35:23;;;;;;;26.55;14.63;;;;;;;;;;4977513;28;20053;-88
2020/12/09 13:37:50;;;;;;;26.38;17.15;;;;;;;;;;4993470;28;20410;-88
2020/12/09 13:40:19;;;;;;;35.30;17.67;;;;;;;;;;4993011;28;20058;-89
2020/12/09 13:42:45;;;;;;;28.55;16.05;;;;;;;;;;4958617;28;20146;-88
2020/12/09 13:45:11;;;;;;;27.42;16.38;;;;;;;;;;4958285;28;20479;-88
2020/12/09 13:47:38;;;;;;;24.95;15.07;;;;;;;;;;4975519;28;20050;-89
2020/12/09 13:50:05;;;;;;;23.67;14.05;;;;;;;;;;4974629;28;20062;-89
2020/12/09 13:52:33;;;;;;;21.23;14.35;;;;;;;;;;4957572;28;20054;-89
2020/12/09 13:54:59;;;;;;;23.55;13.43;;;;;;;;;;4958036;28;20086;-89
2020/12/09 13:57:26;;;;;;;22.05;13.57;;;;;;;;;;4975277;28;20160;-89
2020/12/09 13:59:52;;;;;;;21.55;12.90;;;;;;;;;;4975698;28;20050;-89
2020/12/09 14:02:19;;;;;;;22.80;13.00;;;;;;;;;;4974879;28;20051;-89
2020/12/09 14:04:45;;;;;;;20.80;12.48;;;;;;;;;;4975014;28;20093;-89
2020/12/09 14:07:11;;;;;;;25.50;13.48;;;;;;;;;;4958097;28;20064;-89
2020/12/09 14:09:39;;;;;;;19.27;11.98;;;;;;;;;;4957799;28;20182;-89
2020/12/09 14:12:05;;;;;;;21.48;13.35;;;;;;;;;;4975226;28;20051;-89
2020/12/09 14:14:31;;;;;;;22.85;13.32;;;;;;;;;;4986530;28;20120;-89
2020/12/09 14:16:58;;;;;;;20.58;12.27;;;;;;;;;;4961147;28;20117;-89
2020/12/09 14:19:26;;;;;;;22.73;14.40;;;;;;;;;;4976564;28;20475;-87
2020/12/09 14:21:52;;;;;;;21.05;13.82;;;;;;;;;;4993496;28;20423;-89